sensor_id;sensor_type;location;lat;lon;timestamp;P1;durP1;ratioP1;P2;durP2;ratioP2
35990;SDS011;22064;42.672;23.282;2022-09-02T00:00:57;25.40;;;15.07;;
35990;SDS011;22064;42.672;23.282;2022-09-02T00:03:30;28.65;;;15.98;;
35990;SDS011;22064;42.672;23.282;2022-09-02T00:06:01;24.95;;;15.63;;
35990;SDS011;22064;42.672;23.282;2022-09-02T00:08:29;25.70;;;15.95;;
35990;SDS011;22064;42.672;23.282;2022-09-02T00:10:58;24.75;;;15.38;;
35990;SDS011;22064;42.672;23.282;2022-09-02T00:13:25;24.02;;;15.23;;
35990;SDS011;22064;42.672;23.282;2022-09-02T00:15:52;25.05;;;16.27;;
35990;SDS011;22064;42.672;23.282;2022-09-02T00:18:18;23.75;;;15.93;;
35990;SDS011;22064;42.672;23.282;2022-09-02T00:20:44;25.95;;;15.98;;
35990;SDS011;22064;42.672;23.282;2022-09-02T00:23:12;24.33;;;15.85;;
35990;SDS011;22064;42.672;23.282;2022-09-02T00:25:38;24.55;;;15.88;;
35990;SDS011;22064;42.672;23.282;2022-09-02T00:28:04;24.52;;;16.30;;
35990;SDS011;22064;42.672;23.282;2022-09-02T00:30:31;24.52;;;16.02;;
35990;SDS011;22064;42.672;23.282;2022-09-02T00:32:58;23.08;;;16.65;;
35990;SDS011;22064;42.672;23.282;2022-09-02T00:35:25;23.63;;;15.38;;
35990;SDS011;22064;42.672;23.282;2022-09-02T00:37:51;26.30;;;16.70;;
35990;SDS011;22064;42.672;23.282;2022-09-02T00:40:17;31.08;;;16.80;;
35990;SDS011;22064;42.672;23.282;2022-09-02T00:42:43;26.42;;;16.58;;
35990;SDS011;22064;42.672;23.282;2022-09-02T00:45:10;25.83;;;16.85;;
35990;SDS011;22064;42.672;23.282;2022-09-02T00:47:36;31.23;;;17.27;;
35990;SDS011;22064;42.672;23.282;2022-09-02T00:50:04;26.88;;;16.98;;
35990;SDS011;22064;42.672;23.282;2022-09-02T00:52:34;30.13;;;17.50;;
35990;SDS011;22064;42.672;23.282;2022-09-02T00:57:43;26.80;;;17.63;;
35990;SDS011;22064;42.672;23.282;2022-09-02T01:00:15;26.30;;;16.92;;
35990;SDS011;22064;42.672;23.282;2022-09-02T01:02:47;25.98;;;16.33;;
35990;SDS011;22064;42.672;23.282;2022-09-02T01:05:17;31.58;;;18.10;;
35990;SDS011;22064;42.672;23.282;2022-09-02T01:07:45;28.58;;;17.40;;
35990;SDS011;22064;42.672;23.282;2022-09-02T01:10:13;26.10;;;17.05;;
35990;SDS011;22064;42.672;23.282;2022-09-02T01:12:41;25.45;;;17.17;;
35990;SDS011;22064;42.672;23.282;2022-09-02T01:15:08;29.83;;;16.90;;
35990;SDS011;22064;42.672;23.282;2022-09-02T01:17:36;28.17;;;17.48;;
35990;SDS011;22064;42.672;23.282;2022-09-02T01:20:08;26.20;;;17.35;;
35990;SDS011;22064;42.672;23.282;2022-09-02T01:22:37;23.90;;;15.65;;
35990;SDS011;22064;42.672;23.282;2022-09-02T01:25:11;21.90;;;14.52;;
35990;SDS011;22064;42.672;23.282;2022-09-02T01:27:40;21.95;;;13.57;;
35990;SDS011;22064;42.672;23.282;2022-09-02T01:30:06;20.45;;;12.48;;
35990;SDS011;22064;42.672;23.282;2022-09-02T01:32:35;20.55;;;10.60;;
35990;SDS011;22064;42.672;23.282;2022-09-02T01:35:00;18.02;;;11.30;;
35990;SDS011;22064;42.672;23.282;2022-09-02T01:37:26;20.58;;;11.80;;
35990;SDS011;22064;42.672;23.282;2022-09-02T01:39:52;19.73;;;9.95;;
35990;SDS011;22064;42.672;23.282;2022-09-02T01:42:19;18.10;;;10.40;;
35990;SDS011;22064;42.672;23.282;2022-09-02T01:44:45;19.67;;;10.48;;
35990;SDS011;22064;42.672;23.282;2022-09-02T01:47:12;16.00;;;8.68;;
35990;SDS011;22064;42.672;23.282;2022-09-02T01:49:40;15.85;;;8.70;;
35990;SDS011;22064;42.672;23.282;2022-09-02T01:52:06;15.23;;;8.35;;
35990;SDS011;22064;42.672;23.282;2022-09-02T01:54:32;14.70;;;7.47;;
35990;SDS011;22064;42.672;23.282;2022-09-02T01:56:58;11.05;;;6.88;;
35990;SDS011;22064;42.672;23.282;2022-09-02T01:59:23;10.30;;;6.05;;
35990;SDS011;22064;42.672;23.282;2022-09-02T02:01:49;9.95;;;5.70;;
35990;SDS011;22064;42.672;23.282;2022-09-02T02:04:18;10.23;;;5.60;;
35990;SDS011;22064;42.672;23.282;2022-09-02T02:06:45;10.32;;;5.72;;
35990;SDS011;22064;42.672;23.282;2022-09-02T02:09:12;11.35;;;6.07;;
35990;SDS011;22064;42.672;23.282;2022-09-02T02:11:38;9.52;;;5.72;;
35990;SDS011;22064;42.672;23.282;2022-09-02T02:14:05;10.35;;;5.53;;
35990;SDS011;22064;42.672;23.282;2022-09-02T02:16:33;9.50;;;5.68;;
35990;SDS011;22064;42.672;23.282;2022-09-02T02:18:58;9.93;;;6.20;;
35990;SDS011;22064;42.672;23.282;2022-09-02T02:21:24;10.02;;;6.00;;
35990;SDS011;22064;42.672;23.282;2022-09-02T02:23:50;13.40;;;6.72;;
35990;SDS011;22064;42.672;23.282;2022-09-02T02:26:16;11.07;;;6.63;;
35990;SDS011;22064;42.672;23.282;2022-09-02T02:28:42;10.82;;;6.72;;
35990;SDS011;22064;42.672;23.282;2022-09-02T02:31:07;12.40;;;7.05;;
35990;SDS011;22064;42.672;23.282;2022-09-02T02:33:34;13.25;;;6.85;;
35990;SDS011;22064;42.672;23.282;2022-09-02T02:36:01;13.10;;;7.32;;
35990;SDS011;22064;42.672;23.282;2022-09-02T02:38:29;15.68;;;8.82;;
35990;SDS011;22064;42.672;23.282;2022-09-02T02:40:55;14.15;;;8.80;;
35990;SDS011;22064;42.672;23.282;2022-09-02T02:43:23;17.52;;;9.63;;
35990;SDS011;22064;42.672;23.282;2022-09-02T02:45:51;17.20;;;10.15;;
35990;SDS011;22064;42.672;23.282;2022-09-02T02:48:19;14.57;;;9.00;;
35990;SDS011;22064;42.672;23.282;2022-09-02T02:50:45;17.42;;;10.00;;
35990;SDS011;22064;42.672;23.282;2022-09-02T02:53:11;16.10;;;9.77;;
35990;SDS011;22064;42.672;23.282;2022-09-02T02:55:37;18.40;;;10.63;;
35990;SDS011;22064;42.672;23.282;2022-09-02T02:58:03;17.60;;;10.43;;
35990;SDS011;22064;42.672;23.282;2022-09-02T03:00:30;18.00;;;10.60;;
35990;SDS011;22064;42.672;23.282;2022-09-02T03:03:16;20.27;;;9.52;;
35990;SDS011;22064;42.672;23.282;2022-09-02T03:05:48;18.80;;;9.45;;
35990;SDS011;22064;42.672;23.282;2022-09-02T03:08:16;16.98;;;9.52;;
35990;SDS011;22064;42.672;23.282;2022-09-02T03:10:47;17.05;;;9.40;;
35990;SDS011;22064;42.672;23.282;2022-09-02T03:13:16;15.80;;;8.73;;
35990;SDS011;22064;42.672;23.282;2022-09-02T03:15:43;15.63;;;8.85;;
35990;SDS011;22064;42.672;23.282;2022-09-02T03:18:09;14.85;;;8.88;;
35990;SDS011;22064;42.672;23.282;2022-09-02T03:20:35;14.25;;;7.85;;
35990;SDS011;22064;42.672;23.282;2022-09-02T03:23:03;14.05;;;8.68;;
35990;SDS011;22064;42.672;23.282;2022-09-02T03:25:31;12.95;;;7.28;;
35990;SDS011;22064;42.672;23.282;2022-09-02T03:28:01;13.95;;;8.30;;
35990;SDS011;22064;42.672;23.282;2022-09-02T03:30:28;16.67;;;8.65;;
35990;SDS011;22064;42.672;23.282;2022-09-02T03:32:56;15.77;;;9.82;;
35990;SDS011;22064;42.672;23.282;2022-09-02T03:35:27;17.55;;;9.73;;
35990;SDS011;22064;42.672;23.282;2022-09-02T03:37:53;15.48;;;9.10;;
35990;SDS011;22064;42.672;23.282;2022-09-02T03:40:23;16.98;;;9.98;;
35990;SDS011;22064;42.672;23.282;2022-09-02T03:42:51;17.15;;;9.75;;
35990;SDS011;22064;42.672;23.282;2022-09-02T03:45:19;17.90;;;10.70;;
35990;SDS011;22064;42.672;23.282;2022-09-02T03:47:46;17.27;;;10.68;;
35990;SDS011;22064;42.672;23.282;2022-09-02T03:50:20;18.95;;;10.50;;
35990;SDS011;22064;42.672;23.282;2022-09-02T03:52:52;17.90;;;10.50;;
35990;SDS011;22064;42.672;23.282;2022-09-02T03:55:19;18.45;;;10.57;;
35990;SDS011;22064;42.672;23.282;2022-09-02T03:57:45;19.67;;;11.68;;
35990;SDS011;22064;42.672;23.282;2022-09-02T04:00:11;19.02;;;10.88;;
35990;SDS011;22064;42.672;23.282;2022-09-02T04:02:43;17.70;;;10.32;;
35990;SDS011;22064;42.672;23.282;2022-09-02T04:05:10;19.45;;;11.70;;
35990;SDS011;22064;42.672;23.282;2022-09-02T04:07:39;19.58;;;11.10;;
35990;SDS011;22064;42.672;23.282;2022-09-02T04:10:05;20.27;;;11.50;;
35990;SDS011;22064;42.672;23.282;2022-09-02T04:12:34;18.90;;;11.48;;
35990;SDS011;22064;42.672;23.282;2022-09-02T04:15:01;18.83;;;11.90;;
35990;SDS011;22064;42.672;23.282;2022-09-02T04:17:34;20.55;;;11.68;;
35990;SDS011;22064;42.672;23.282;2022-09-02T04:20:01;20.38;;;11.90;;
35990;SDS011;22064;42.672;23.282;2022-09-02T04:22:29;21.33;;;11.87;;
35990;SDS011;22064;42.672;23.282;2022-09-02T04:24:55;19.02;;;11.32;;
35990;SDS011;22064;42.672;23.282;2022-09-02T04:27:21;19.70;;;11.48;;
35990;SDS011;22064;42.672;23.282;2022-09-02T04:29:47;22.25;;;12.38;;
35990;SDS011;22064;42.672;23.282;2022-09-02T04:32:13;22.02;;;12.10;;
35990;SDS011;22064;42.672;23.282;2022-09-02T04:34:38;20.45;;;12.27;;
35990;SDS011;22064;42.672;23.282;2022-09-02T04:37:04;21.45;;;12.15;;
35990;SDS011;22064;42.672;23.282;2022-09-02T04:39:30;20.67;;;11.65;;
35990;SDS011;22064;42.672;23.282;2022-09-02T04:41:56;19.50;;;11.43;;
35990;SDS011;22064;42.672;23.282;2022-09-02T04:44:24;21.85;;;11.95;;
35990;SDS011;22064;42.672;23.282;2022-09-02T04:46:50;19.70;;;12.40;;
35990;SDS011;22064;42.672;23.282;2022-09-02T04:49:19;22.25;;;12.75;;
35990;SDS011;22064;42.672;23.282;2022-09-02T04:51:45;22.98;;;13.63;;
35990;SDS011;22064;42.672;23.282;2022-09-02T04:54:11;23.65;;;14.20;;
35990;SDS011;22064;42.672;23.282;2022-09-02T04:56:40;22.93;;;13.80;;
35990;SDS011;22064;42.672;23.282;2022-09-02T04:59:07;24.17;;;13.80;;
35990;SDS011;22064;42.672;23.282;2022-09-02T05:01:34;27.75;;;14.35;;
35990;SDS011;22064;42.672;23.282;2022-09-02T05:04:07;24.67;;;14.15;;
35990;SDS011;22064;42.672;23.282;2022-09-02T05:06:37;28.13;;;15.02;;
35990;SDS011;22064;42.672;23.282;2022-09-02T05:09:05;25.55;;;14.48;;
35990;SDS011;22064;42.672;23.282;2022-09-02T05:11:34;24.98;;;15.23;;
35990;SDS011;22064;42.672;23.282;2022-09-02T05:14:01;28.08;;;14.80;;
35990;SDS011;22064;42.672;23.282;2022-09-02T05:16:32;21.45;;;13.52;;
35990;SDS011;22064;42.672;23.282;2022-09-02T05:19:06;23.02;;;14.40;;
35990;SDS011;22064;42.672;23.282;2022-09-02T05:21:41;23.15;;;13.52;;
35990;SDS011;22064;42.672;23.282;2022-09-02T05:24:11;25.20;;;14.40;;
35990;SDS011;22064;42.672;23.282;2022-09-02T05:26:37;25.20;;;13.73;;
35990;SDS011;22064;42.672;23.282;2022-09-02T05:29:04;24.00;;;13.40;;
35990;SDS011;22064;42.672;23.282;2022-09-02T05:31:36;21.80;;;13.25;;
35990;SDS011;22064;42.672;23.282;2022-09-02T05:34:05;21.17;;;13.25;;
35990;SDS011;22064;42.672;23.282;2022-09-02T05:36:31;21.77;;;13.20;;
35990;SDS011;22064;42.672;23.282;2022-09-02T05:38:57;22.65;;;12.90;;
35990;SDS011;22064;42.672;23.282;2022-09-02T05:41:24;22.42;;;12.85;;
35990;SDS011;22064;42.672;23.282;2022-09-02T05:43:54;26.15;;;11.55;;
35990;SDS011;22064;42.672;23.282;2022-09-02T05:46:22;20.80;;;11.93;;
35990;SDS011;22064;42.672;23.282;2022-09-02T05:48:50;21.23;;;11.20;;
35990;SDS011;22064;42.672;23.282;2022-09-02T05:51:54;20.05;;;11.45;;
35990;SDS011;22064;42.672;23.282;2022-09-02T05:54:29;18.55;;;10.38;;
35990;SDS011;22064;42.672;23.282;2022-09-02T05:57:01;17.00;;;10.10;;
35990;SDS011;22064;42.672;23.282;2022-09-02T05:59:30;15.77;;;9.18;;
35990;SDS011;22064;42.672;23.282;2022-09-02T06:01:58;17.05;;;10.27;;
35990;SDS011;22064;42.672;23.282;2022-09-02T06:04:26;16.63;;;9.57;;
35990;SDS011;22064;42.672;23.282;2022-09-02T06:06:51;15.65;;;9.40;;
35990;SDS011;22064;42.672;23.282;2022-09-02T06:09:20;19.10;;;9.25;;
35990;SDS011;22064;42.672;23.282;2022-09-02T06:11:48;16.33;;;8.57;;
35990;SDS011;22064;42.672;23.282;2022-09-02T06:14:19;14.27;;;8.73;;
35990;SDS011;22064;42.672;23.282;2022-09-02T06:16:48;17.73;;;8.93;;
35990;SDS011;22064;42.672;23.282;2022-09-02T06:19:22;17.45;;;9.88;;
35990;SDS011;22064;42.672;23.282;2022-09-02T06:21:53;16.63;;;9.38;;
35990;SDS011;22064;42.672;23.282;2022-09-02T06:24:22;23.00;;;9.50;;
35990;SDS011;22064;42.672;23.282;2022-09-02T06:26:49;17.30;;;9.43;;
35990;SDS011;22064;42.672;23.282;2022-09-02T06:29:15;18.98;;;10.35;;
35990;SDS011;22064;42.672;23.282;2022-09-02T06:31:42;18.83;;;10.95;;
35990;SDS011;22064;42.672;23.282;2022-09-02T06:34:10;16.30;;;9.70;;
35990;SDS011;22064;42.672;23.282;2022-09-02T06:39:08;19.02;;;9.95;;
35990;SDS011;22064;42.672;23.282;2022-09-02T06:41:36;17.58;;;9.63;;
35990;SDS011;22064;42.672;23.282;2022-09-02T06:44:06;17.48;;;10.48;;
35990;SDS011;22064;42.672;23.282;2022-09-02T06:46:37;16.02;;;9.07;;
35990;SDS011;22064;42.672;23.282;2022-09-02T06:49:11;16.08;;;9.00;;
35990;SDS011;22064;42.672;23.282;2022-09-02T06:51:39;15.07;;;8.75;;
35990;SDS011;22064;42.672;23.282;2022-09-02T06:54:07;17.77;;;9.10;;
35990;SDS011;22064;42.672;23.282;2022-09-02T06:56:36;16.15;;;8.95;;
35990;SDS011;22064;42.672;23.282;2022-09-02T06:59:03;15.23;;;9.23;;
35990;SDS011;22064;42.672;23.282;2022-09-02T07:01:49;17.67;;;9.68;;
35990;SDS011;22064;42.672;23.282;2022-09-02T07:04:17;15.57;;;9.20;;
35990;SDS011;22064;42.672;23.282;2022-09-02T07:07:05;14.10;;;8.55;;
35990;SDS011;22064;42.672;23.282;2022-09-02T07:09:36;17.67;;;9.70;;
35990;SDS011;22064;42.672;23.282;2022-09-02T07:12:10;14.85;;;8.73;;
35990;SDS011;22064;42.672;23.282;2022-09-02T07:14:43;17.73;;;10.10;;
35990;SDS011;22064;42.672;23.282;2022-09-02T07:17:11;17.65;;;9.13;;
35990;SDS011;22064;42.672;23.282;2022-09-02T07:19:44;17.27;;;9.90;;
35990;SDS011;22064;42.672;23.282;2022-09-02T07:22:09;17.30;;;9.82;;
35990;SDS011;22064;42.672;23.282;2022-09-02T07:24:40;17.40;;;9.52;;
35990;SDS011;22064;42.672;23.282;2022-09-02T07:27:07;16.85;;;9.98;;
35990;SDS011;22064;42.672;23.282;2022-09-02T07:29:32;19.52;;;10.10;;
35990;SDS011;22064;42.672;23.282;2022-09-02T07:31:59;18.38;;;9.10;;
35990;SDS011;22064;42.672;23.282;2022-09-02T07:34:27;15.70;;;8.90;;
35990;SDS011;22064;42.672;23.282;2022-09-02T07:36:53;15.48;;;8.98;;
35990;SDS011;22064;42.672;23.282;2022-09-02T07:39:20;13.23;;;8.60;;
35990;SDS011;22064;42.672;23.282;2022-09-02T07:41:47;14.23;;;7.95;;
35990;SDS011;22064;42.672;23.282;2022-09-02T07:44:16;13.80;;;8.43;;
35990;SDS011;22064;42.672;23.282;2022-09-02T07:46:44;14.13;;;8.60;;
35990;SDS011;22064;42.672;23.282;2022-09-02T07:49:10;12.25;;;8.07;;
35990;SDS011;22064;42.672;23.282;2022-09-02T07:51:39;13.52;;;7.60;;
35990;SDS011;22064;42.672;23.282;2022-09-02T07:54:08;13.05;;;7.88;;
35990;SDS011;22064;42.672;23.282;2022-09-02T07:56:37;15.63;;;8.20;;
35990;SDS011;22064;42.672;23.282;2022-09-02T07:59:04;14.93;;;8.27;;
35990;SDS011;22064;42.672;23.282;2022-09-02T08:01:31;15.98;;;8.18;;
35990;SDS011;22064;42.672;23.282;2022-09-02T08:03:57;14.90;;;7.95;;
35990;SDS011;22064;42.672;23.282;2022-09-02T08:06:27;13.43;;;7.95;;
35990;SDS011;22064;42.672;23.282;2022-09-02T08:08:55;15.43;;;8.70;;
35990;SDS011;22064;42.672;23.282;2022-09-02T08:11:20;13.98;;;7.40;;
35990;SDS011;22064;42.672;23.282;2022-09-02T08:13:47;13.10;;;7.47;;
35990;SDS011;22064;42.672;23.282;2022-09-02T08:16:13;14.40;;;7.68;;
35990;SDS011;22064;42.672;23.282;2022-09-02T08:18:39;11.10;;;7.13;;
35990;SDS011;22064;42.672;23.282;2022-09-02T08:21:05;9.90;;;6.78;;
35990;SDS011;22064;42.672;23.282;2022-09-02T08:23:30;11.45;;;7.40;;
35990;SDS011;22064;42.672;23.282;2022-09-02T08:25:59;14.52;;;7.97;;
35990;SDS011;22064;42.672;23.282;2022-09-02T08:28:26;12.40;;;7.38;;
35990;SDS011;22064;42.672;23.282;2022-09-02T08:30:53;13.95;;;8.00;;
35990;SDS011;22064;42.672;23.282;2022-09-02T08:33:21;14.07;;;7.80;;
35990;SDS011;22064;42.672;23.282;2022-09-02T08:35:47;15.73;;;8.02;;
35990;SDS011;22064;42.672;23.282;2022-09-02T08:38:13;15.80;;;8.02;;
35990;SDS011;22064;42.672;23.282;2022-09-02T08:40:39;13.65;;;8.10;;
35990;SDS011;22064;42.672;23.282;2022-09-02T08:43:17;13.80;;;7.65;;
35990;SDS011;22064;42.672;23.282;2022-09-02T08:45:48;12.27;;;7.70;;
35990;SDS011;22064;42.672;23.282;2022-09-02T08:48:20;13.40;;;7.90;;
35990;SDS011;22064;42.672;23.282;2022-09-02T08:50:57;12.68;;;7.20;;
35990;SDS011;22064;42.672;23.282;2022-09-02T08:53:29;13.43;;;7.85;;
35990;SDS011;22064;42.672;23.282;2022-09-02T08:55:58;13.10;;;7.38;;
35990;SDS011;22064;42.672;23.282;2022-09-02T08:58:28;12.98;;;7.95;;
35990;SDS011;22064;42.672;23.282;2022-09-02T09:03:57;13.77;;;7.93;;
35990;SDS011;22064;42.672;23.282;2022-09-02T09:18:00;16.08;;;8.80;;
35990;SDS011;22064;42.672;23.282;2022-09-02T09:20:32;14.75;;;8.98;;
35990;SDS011;22064;42.672;23.282;2022-09-02T09:23:07;13.30;;;8.27;;
35990;SDS011;22064;42.672;23.282;2022-09-02T09:25:46;13.00;;;8.43;;
35990;SDS011;22064;42.672;23.282;2022-09-02T09:28:16;15.77;;;8.60;;
35990;SDS011;22064;42.672;23.282;2022-09-02T09:30:41;17.27;;;9.38;;
35990;SDS011;22064;42.672;23.282;2022-09-02T09:33:07;16.58;;;8.70;;
35990;SDS011;22064;42.672;23.282;2022-09-02T09:35:53;15.27;;;9.57;;
35990;SDS011;22064;42.672;23.282;2022-09-02T09:38:27;13.80;;;9.15;;
35990;SDS011;22064;42.672;23.282;2022-09-02T09:41:18;15.23;;;8.68;;
35990;SDS011;22064;42.672;23.282;2022-09-02T09:43:48;15.90;;;8.88;;
35990;SDS011;22064;42.672;23.282;2022-09-02T09:46:24;14.65;;;9.13;;
35990;SDS011;22064;42.672;23.282;2022-09-02T09:48:51;16.38;;;9.25;;
35990;SDS011;22064;42.672;23.282;2022-09-02T09:51:16;17.75;;;10.70;;
35990;SDS011;22064;42.672;23.282;2022-09-02T09:53:42;17.25;;;10.55;;
35990;SDS011;22064;42.672;23.282;2022-09-02T10:01:48;17.47;;;10.40;;
35990;SDS011;22064;42.672;23.282;2022-09-02T10:04:09;17.50;;;9.82;;
35990;SDS011;22064;42.672;23.282;2022-09-02T10:06:48;19.02;;;10.23;;
35990;SDS011;22064;42.672;23.282;2022-09-02T10:17:36;21.00;;;11.38;;
35990;SDS011;22064;42.672;23.282;2022-09-02T10:28:37;22.52;;;12.25;;
35990;SDS011;22064;42.672;23.282;2022-09-02T10:31:36;20.67;;;12.38;;
35990;SDS011;22064;42.672;23.282;2022-09-02T10:34:33;24.05;;;12.57;;
35990;SDS011;22064;42.672;23.282;2022-09-02T10:56:31;21.67;;;13.25;;
35990;SDS011;22064;42.672;23.282;2022-09-02T10:59:46;25.83;;;13.25;;
35990;SDS011;22064;42.672;23.282;2022-09-02T11:01:59;21.17;;;12.60;;
35990;SDS011;22064;42.672;23.282;2022-09-02T11:04:52;23.55;;;13.80;;
35990;SDS011;22064;42.672;23.282;2022-09-02T11:07:27;23.80;;;14.35;;
35990;SDS011;22064;42.672;23.282;2022-09-02T11:10:21;24.30;;;14.82;;
35990;SDS011;22064;42.672;23.282;2022-09-02T11:13:03;22.10;;;13.85;;
35990;SDS011;22064;42.672;23.282;2022-09-02T11:26:34;21.05;;;12.98;;
35990;SDS011;22064;42.672;23.282;2022-09-02T11:34:48;19.98;;;12.52;;
35990;SDS011;22064;42.672;23.282;2022-09-02T11:37:51;22.85;;;12.90;;
35990;SDS011;22064;42.672;23.282;2022-09-02T11:40:20;18.67;;;11.68;;
35990;SDS011;22064;42.672;23.282;2022-09-02T11:54:11;19.85;;;12.70;;
35990;SDS011;22064;42.672;23.282;2022-09-02T11:56:41;21.40;;;12.38;;
35990;SDS011;22064;42.672;23.282;2022-09-02T11:59:18;24.80;;;14.30;;
35990;SDS011;22064;42.672;23.282;2022-09-02T12:01:49;22.85;;;13.95;;
35990;SDS011;22064;42.672;23.282;2022-09-02T12:04:19;23.70;;;14.13;;
35990;SDS011;22064;42.672;23.282;2022-09-02T12:09:44;22.65;;;13.85;;
35990;SDS011;22064;42.672;23.282;2022-09-02T12:15:16;22.00;;;13.57;;
35990;SDS011;22064;42.672;23.282;2022-09-02T12:18:28;22.92;;;14.30;;
35990;SDS011;22064;42.672;23.282;2022-09-02T12:23:00;38.00;;;24.60;;
35990;SDS011;22064;42.672;23.282;2022-09-02T12:35:55;21.92;;;13.60;;
35990;SDS011;22064;42.672;23.282;2022-09-02T12:38:23;22.13;;;13.10;;
35990;SDS011;22064;42.672;23.282;2022-09-02T12:40:54;21.98;;;12.77;;
35990;SDS011;22064;42.672;23.282;2022-09-02T12:46:11;19.45;;;11.80;;
35990;SDS011;22064;42.672;23.282;2022-09-02T12:48:43;17.83;;;11.50;;
35990;SDS011;22064;42.672;23.282;2022-09-02T12:51:49;23.98;;;12.68;;
35990;SDS011;22064;42.672;23.282;2022-09-02T12:54:20;19.05;;;12.73;;
35990;SDS011;22064;42.672;23.282;2022-09-02T12:56:51;19.55;;;12.50;;
35990;SDS011;22064;42.672;23.282;2022-09-02T12:59:23;17.17;;;12.32;;
35990;SDS011;22064;42.672;23.282;2022-09-02T13:02:15;19.77;;;12.43;;
35990;SDS011;22064;42.672;23.282;2022-09-02T13:21:07;23.38;;;14.43;;
35990;SDS011;22064;42.672;23.282;2022-09-02T13:32:26;24.88;;;15.13;;
35990;SDS011;22064;42.672;23.282;2022-09-02T13:34:54;27.42;;;16.70;;
35990;SDS011;22064;42.672;23.282;2022-09-02T13:37:30;28.20;;;18.58;;
35990;SDS011;22064;42.672;23.282;2022-09-02T13:40:05;31.95;;;21.17;;
35990;SDS011;22064;42.672;23.282;2022-09-02T13:42:30;35.47;;;23.35;;
35990;SDS011;22064;42.672;23.282;2022-09-02T13:47:42;43.42;;;26.33;;
35990;SDS011;22064;42.672;23.282;2022-09-02T13:50:10;42.25;;;26.80;;
35990;SDS011;22064;42.672;23.282;2022-09-02T13:52:39;45.72;;;27.77;;
35990;SDS011;22064;42.672;23.282;2022-09-02T13:55:05;46.58;;;28.17;;
35990;SDS011;22064;42.672;23.282;2022-09-02T13:57:32;49.60;;;29.70;;
35990;SDS011;22064;42.672;23.282;2022-09-02T14:00:00;48.22;;;28.73;;
35990;SDS011;22064;42.672;23.282;2022-09-02T14:02:27;48.25;;;30.15;;
35990;SDS011;22064;42.672;23.282;2022-09-02T14:05:04;50.03;;;29.65;;
35990;SDS011;22064;42.672;23.282;2022-09-02T14:07:36;43.00;;;26.50;;
35990;SDS011;22064;42.672;23.282;2022-09-02T14:10:06;45.78;;;27.90;;
35990;SDS011;22064;42.672;23.282;2022-09-02T14:12:35;49.92;;;28.95;;
35990;SDS011;22064;42.672;23.282;2022-09-02T14:15:02;53.92;;;31.70;;
35990;SDS011;22064;42.672;23.282;2022-09-02T14:17:30;60.70;;;36.15;;
35990;SDS011;22064;42.672;23.282;2022-09-02T14:22:56;66.22;;;35.67;;
35990;SDS011;22064;42.672;23.282;2022-09-02T14:25:24;71.25;;;36.95;;
35990;SDS011;22064;42.672;23.282;2022-09-02T14:27:57;57.95;;;33.10;;
35990;SDS011;22064;42.672;23.282;2022-09-02T14:38:34;50.03;;;31.10;;
35990;SDS011;22064;42.672;23.282;2022-09-02T14:41:25;48.20;;;30.73;;
35990;SDS011;22064;42.672;23.282;2022-09-02T14:43:59;53.13;;;32.70;;
35990;SDS011;22064;42.672;23.282;2022-09-02T14:52:15;46.00;;;29.15;;
35990;SDS011;22064;42.672;23.282;2022-09-02T14:54:45;46.17;;;29.40;;
35990;SDS011;22064;42.672;23.282;2022-09-02T14:57:20;49.85;;;31.15;;
35990;SDS011;22064;42.672;23.282;2022-09-02T14:59:54;46.35;;;29.90;;
35990;SDS011;22064;42.672;23.282;2022-09-02T15:05:00;41.45;;;26.73;;
35990;SDS011;22064;42.672;23.282;2022-09-02T15:07:28;46.25;;;28.50;;
35990;SDS011;22064;42.672;23.282;2022-09-02T15:09:53;45.72;;;29.20;;
35990;SDS011;22064;42.672;23.282;2022-09-02T15:12:20;45.17;;;27.67;;
35990;SDS011;22064;42.672;23.282;2022-09-02T15:17:15;44.90;;;27.23;;
35990;SDS011;22064;42.672;23.282;2022-09-02T15:19:41;41.58;;;27.20;;
35990;SDS011;22064;42.672;23.282;2022-09-02T15:22:06;42.22;;;26.63;;
35990;SDS011;22064;42.672;23.282;2022-09-02T15:24:32;44.13;;;26.80;;
35990;SDS011;22064;42.672;23.282;2022-09-02T15:26:57;45.17;;;27.23;;
35990;SDS011;22064;42.672;23.282;2022-09-02T15:29:23;45.55;;;28.23;;
35990;SDS011;22064;42.672;23.282;2022-09-02T15:31:52;40.42;;;26.40;;
35990;SDS011;22064;42.672;23.282;2022-09-02T15:34:21;40.92;;;24.95;;
35990;SDS011;22064;42.672;23.282;2022-09-02T15:36:48;44.92;;;27.02;;
35990;SDS011;22064;42.672;23.282;2022-09-02T15:39:14;44.03;;;27.13;;
35990;SDS011;22064;42.672;23.282;2022-09-02T15:41:41;43.70;;;26.98;;
35990;SDS011;22064;42.672;23.282;2022-09-02T15:44:08;44.97;;;27.92;;
35990;SDS011;22064;42.672;23.282;2022-09-02T15:46:34;45.97;;;27.00;;
35990;SDS011;22064;42.672;23.282;2022-09-02T15:49:04;42.33;;;25.90;;
35990;SDS011;22064;42.672;23.282;2022-09-02T15:51:31;45.33;;;28.42;;
35990;SDS011;22064;42.672;23.282;2022-09-02T15:53:59;46.30;;;28.13;;
35990;SDS011;22064;42.672;23.282;2022-09-02T15:56:26;45.00;;;27.85;;
35990;SDS011;22064;42.672;23.282;2022-09-02T15:58:54;46.30;;;29.33;;
35990;SDS011;22064;42.672;23.282;2022-09-02T16:01:29;56.75;;;31.75;;
35990;SDS011;22064;42.672;23.282;2022-09-02T16:03:56;56.42;;;31.70;;
35990;SDS011;22064;42.672;23.282;2022-09-02T16:06:23;55.55;;;33.22;;
35990;SDS011;22064;42.672;23.282;2022-09-02T16:08:49;47.22;;;27.63;;
35990;SDS011;22064;42.672;23.282;2022-09-02T16:11:15;47.75;;;27.10;;
35990;SDS011;22064;42.672;23.282;2022-09-02T16:13:41;51.05;;;28.05;;
35990;SDS011;22064;42.672;23.282;2022-09-02T16:16:08;46.50;;;25.55;;
35990;SDS011;22064;42.672;23.282;2022-09-02T16:18:36;45.97;;;25.60;;
35990;SDS011;22064;42.672;23.282;2022-09-02T16:21:02;40.92;;;24.55;;
35990;SDS011;22064;42.672;23.282;2022-09-02T16:23:29;43.90;;;26.92;;
35990;SDS011;22064;42.672;23.282;2022-09-02T16:28:48;54.92;;;31.63;;
35990;SDS011;22064;42.672;23.282;2022-09-02T16:31:16;39.85;;;23.55;;
35990;SDS011;22064;42.672;23.282;2022-09-02T16:33:56;29.42;;;16.35;;
35990;SDS011;22064;42.672;23.282;2022-09-02T16:36:27;32.33;;;16.63;;
35990;SDS011;22064;42.672;23.282;2022-09-02T16:38:54;28.45;;;15.20;;
35990;SDS011;22064;42.672;23.282;2022-09-02T16:41:20;23.88;;;13.65;;
35990;SDS011;22064;42.672;23.282;2022-09-02T16:43:47;22.10;;;11.82;;
35990;SDS011;22064;42.672;23.282;2022-09-02T16:46:13;20.70;;;10.15;;
35990;SDS011;22064;42.672;23.282;2022-09-02T16:48:38;18.27;;;10.02;;
35990;SDS011;22064;42.672;23.282;2022-09-02T16:51:04;19.95;;;10.77;;
35990;SDS011;22064;42.672;23.282;2022-09-02T16:53:30;17.60;;;9.52;;
35990;SDS011;22064;42.672;23.282;2022-09-02T16:55:56;18.88;;;9.85;;
35990;SDS011;22064;42.672;23.282;2022-09-02T16:58:22;21.15;;;10.93;;
35990;SDS011;22064;42.672;23.282;2022-09-02T17:00:48;18.55;;;9.75;;
35990;SDS011;22064;42.672;23.282;2022-09-02T17:03:14;22.10;;;10.50;;
35990;SDS011;22064;42.672;23.282;2022-09-02T17:05:39;20.60;;;10.30;;
35990;SDS011;22064;42.672;23.282;2022-09-02T17:08:05;22.08;;;10.90;;
35990;SDS011;22064;42.672;23.282;2022-09-02T17:10:32;21.30;;;10.75;;